Time;durP1;ratioP1;P1;durP2;ratioP2;P2;SDS_P1;SDS_P2;PMS_P1;PMS_P2;Temp;Humidity;BMP_temperature;BMP_pressure;BME280_temperature;BME280_humidity;BME280_pressure;Samples;Min_cycle;Max_cycle;Signal;HPM_P1;HPM_P2
2021/04/02 00:01:02;;;;;;;0.60;0.60;;;;;;;13.57;50.99;97057.94;29990;253;6000;-64
2021/04/02 00:01:32;;;;;;;0.50;0.50;;;;;;;13.60;50.80;97057.31;29989;213;6005;-60
2021/04/02 00:02:08;;;;;;;1.92;1.87;;;;;;;13.52;51.11;97061.59;29990;230;6000;-61
2021/04/02 00:02:39;;;;;;;0.50;0.50;;;;;;;13.48;51.28;97059.81;29991;307;6004;-61
2021/04/02 00:03:21;;;;;;;0.70;0.70;;;;;;;13.41;51.57;97060.22;29989;202;6000;-60
2021/04/02 00:03:51;;;;;;;0.50;0.50;;;;;;;13.32;51.91;97060.13;29990;224;6004;-61
2021/04/02 00:04:22;;;;;;;0.50;0.50;;;;;;;13.23;52.25;97058.44;29989;263;6000;-60
2021/04/02 00:04:52;;;;;;;0.50;0.50;;;;;;;13.13;52.46;97058.63;29990;210;6004;-59
2021/04/02 00:05:23;;;;;;;0.60;0.60;;;;;;;13.11;52.15;97064.38;29990;203;6000;-60
2021/04/02 00:05:56;;;;;;;0.50;0.50;;;;;;;13.08;52.60;97062.28;29990;223;6004;-60
2021/04/02 00:06:26;;;;;;;0.50;0.50;;;;;;;13.04;52.73;97062.06;29990;250;6000;-61
2021/04/02 00:06:57;;;;;;;0.50;0.50;;;;;;;12.99;53.59;97066.81;29990;344;6004;-61
2021/04/02 00:07:27;;;;;;;0.88;0.88;;;;;;;12.94;52.78;97064.19;29990;214;6000;-61
2021/04/02 00:07:58;;;;;;;0.50;0.50;;;;;;;12.90;53.08;97060.44;29990;277;6005;-60
2021/04/02 00:08:28;;;;;;;0.50;0.50;;;;;;;12.85;53.31;97063.28;29989;265;6000;-60
2021/04/02 00:08:59;;;;;;;0.50;0.50;;;;;;;12.82;53.38;97058.47;29990;209;6005;-60
2021/04/02 00:09:29;;;;;;;0.50;0.50;;;;;;;12.84;53.69;97061.66;29990;305;6000;-60
2021/04/02 00:10:00;;;;;;;0.50;0.50;;;;;;;12.90;53.54;97060.44;29990;216;6004;-60
2021/04/02 00:10:38;;;;;;;0.50;0.50;;;;;;;12.91;53.38;97062.06;29990;202;6000;-60
2021/04/02 00:11:11;;;;;;;0.50;0.50;;;;;;;12.83;54.31;97065.50;29990;290;6004;-61
2021/04/02 00:11:43;;;;;;;0.50;0.50;;;;;;;12.75;53.91;97056.94;29989;244;6000;-60
2021/04/02 00:12:13;;;;;;;0.50;0.50;;;;;;;12.72;54.02;97060.28;29990;220;6004;-60
2021/04/02 00:12:46;;;;;;;0.50;0.50;;;;;;;12.70;54.12;97067.13;29990;205;6000;-60
2021/04/02 00:13:22;;;;;;;0.50;0.50;;;;;;;12.65;54.23;97065.31;29990;224;6004;-60
2021/04/02 00:13:52;;;;;;;0.50;0.50;;;;;;;12.58;54.71;97064.88;29989;231;6000;-60
2021/04/02 00:14:23;;;;;;;0.50;0.50;;;;;;;12.55;54.43;97059.22;29990;226;6004;-60
2021/04/02 00:14:54;;;;;;;0.50;0.50;;;;;;;12.52;54.76;97071.53;29990;217;6000;-60
2021/04/02 00:15:24;;;;;;;0.50;0.50;;;;;;;12.49;54.67;97063.16;29990;199;6005;-60
2021/04/02 00:15:56;;;;;;;0.50;0.50;;;;;;;12.45;54.97;97065.69;29990;291;6000;-60
2021/04/02 00:16:27;;;;;;;0.50;0.50;;;;;;;12.42;54.90;97063.56;29990;251;6005;-60
2021/04/02 00:16:57;;;;;;;0.50;0.50;;;;;;;12.43;54.66;97062.47;29989;214;6000;-60
2021/04/02 00:17:28;;;;;;;0.50;0.50;;;;;;;12.42;55.01;97066.28;29990;212;6004;-61
2021/04/02 00:17:58;;;;;;;0.50;0.50;;;;;;;12.41;55.01;97064.69;29990;225;6000;-60
2021/04/02 00:18:29;;;;;;;0.50;0.50;;;;;;;12.38;55.03;97065.28;29990;221;6004;-61
2021/04/02 00:19:00;;;;;;;0.50;0.50;;;;;;;12.35;55.20;97066.69;29989;295;6000;-60
2021/04/02 00:19:30;;;;;;;0.50;0.50;;;;;;;12.33;54.91;97063.44;29990;238;6004;-59
2021/04/02 00:20:03;;;;;;;0.50;0.50;;;;;;;12.33;55.12;97063.44;29990;214;6000;-60
2021/04/02 00:20:33;;;;;;;0.50;0.50;;;;;;;12.31;55.36;97065.66;29990;242;6004;-60
2021/04/02 00:21:07;;;;;;;0.50;0.50;;;;;;;12.29;55.42;97065.16;29991;204;6000;-60
2021/04/02 00:21:38;;;;;;;0.50;0.50;;;;;;;12.26;56.79;97070.38;29990;201;6004;-60
2021/04/02 00:22:08;;;;;;;0.50;0.50;;;;;;;12.21;56.42;97065.84;29990;209;6000;-60
2021/04/02 00:22:40;;;;;;;0.50;0.50;;;;;;;12.18;55.76;97060.19;29990;233;6005;-61
2021/04/02 00:23:12;;;;;;;0.50;0.50;;;;;;;12.18;56.02;97060.19;29990;261;6000;-60
2021/04/02 00:23:43;;;;;;;0.50;0.50;;;;;;;12.18;56.17;97060.19;29990;198;6005;-60
2021/04/02 00:24:14;;;;;;;0.50;0.50;;;;;;;12.15;56.67;97060.78;29989;235;6000;-61
2021/04/02 00:24:44;;;;;;;0.50;0.50;;;;;;;12.12;56.07;97061.41;29990;229;6004;-60
2021/04/02 00:25:15;;;;;;;0.50;0.50;;;;;;;12.11;56.02;97063.31;29990;269;6000;-60
2021/04/02 00:25:46;;;;;;;0.50;0.50;;;;;;;12.10;56.15;97063.59;29989;218;6004;-60
2021/04/02 00:26:19;;;;;;;0.50;0.50;;;;;;;12.10;55.91;97058.16;29990;206;6000;-60
2021/04/02 00:26:49;;;;;;;0.50;0.50;;;;;;;12.11;56.23;97059.78;29990;267;6016;-60
2021/04/02 00:27:20;;;;;;;0.50;0.50;;;;;;;12.09;56.73;97057.38;29990;208;6000;-60
2021/04/02 00:27:50;;;;;;;0.50;0.50;;;;;;;12.07;56.52;97059.56;29990;226;6008;-60
2021/04/02 00:28:21;;;;;;;0.50;0.50;;;;;;;12.07;56.31;97054.13;29990;215;6000;-60
2021/04/02 00:28:53;;;;;;;0.50;0.50;;;;;;;12.06;56.58;97057.97;29989;204;6004;-60
2021/04/02 00:29:24;;;;;;;0.50;0.50;;;;;;;12.04;57.10;97063.69;29989;216;6000;-60
2021/04/02 00:29:54;;;;;;;0.50;0.50;;;;;;;12.02;57.41;97057.75;29990;308;6005;-60
2021/04/02 00:30:37;;;;;;;0.60;0.60;;;;;;;12.00;57.42;97059.13;29991;205;6000;-60
2021/04/02 00:31:08;;;;;;;0.50;0.50;;;;;;;11.98;56.71;97051.28;29990;197;6005;-62
2021/04/02 00:31:39;;;;;;;0.50;0.50;;;;;;;12.12;56.22;97055.97;29990;225;6000;-61
2021/04/02 00:32:09;;;;;;;0.50;0.50;;;;;;;12.13;56.25;97052.13;29990;199;6005;-61
2021/04/02 00:32:42;;;;;;;0.50;0.50;;;;;;;12.12;56.04;97047.81;29990;225;6000;-60
2021/04/02 00:33:14;;;;;;;0.50;0.50;;;;;;;12.10;55.79;97052.72;29989;335;6004;-61
2021/04/02 00:33:44;;;;;;;0.50;0.50;;;;;;;12.07;55.83;97054.94;29990;205;6000;-60
2021/04/02 00:34:15;;;;;;;0.50;0.50;;;;;;;12.06;56.09;97049.78;29990;296;6004;-60
2021/04/02 00:34:52;;;;;;;0.50;0.50;;;;;;;12.04;56.05;97050.09;29990;199;6000;-60
2021/04/02 00:35:24;;;;;;;0.50;0.50;;;;;;;12.02;56.27;97046.06;29990;239;6004;-60
2021/04/02 00:35:57;;;;;;;0.50;0.50;;;;;;;11.93;56.52;97043.19;29990;225;6000;-61
2021/04/02 00:36:27;;;;;;;0.50;0.50;;;;;;;11.99;56.57;97052.91;29990;280;6004;-61
2021/04/02 00:36:59;;;;;;;0.50;0.50;;;;;;;11.95;56.67;97046.44;29990;196;6000;-61
2021/04/02 00:37:30;;;;;;;0.50;0.50;;;;;;;11.94;56.67;97050.25;29990;204;6005;-61
2021/04/02 00:38:01;;;;;;;0.50;0.50;;;;;;;11.93;56.81;97047.84;29990;275;6000;-60
2021/04/02 00:38:32;;;;;;;0.50;0.50;;;;;;;11.89;57.50;97044.91;29989;216;6005;-60
2021/04/02 00:39:05;;;;;;;0.50;0.50;;;;;;;11.91;56.98;97050.84;29990;210;6000;-61
2021/04/02 00:39:35;;;;;;;0.50;0.50;;;;;;;11.91;57.10;97039.97;29990;202;6005;-61
2021/04/02 00:40:24;;;;;;;0.50;0.50;;;;;;;12.00;56.63;97049.06;29990;202;6000;-61
2021/04/02 00:41:01;;;;;;;0.52;0.52;;;;;;;12.16;56.43;97029.75;29990;266;6004;-60
2021/04/02 00:41:32;;;;;;;0.50;0.50;;;;;;;12.32;55.87;97044.69;29990;260;6000;-61
2021/04/02 00:42:03;;;;;;;0.60;0.60;;;;;;;12.43;55.62;97040.69;29990;202;6004;-60
2021/04/02 00:42:34;;;;;;;0.57;0.57;;;;;;;12.45;55.40;97043.94;29990;233;6000;-63
2021/04/02 00:43:06;;;;;;;0.62;0.62;;;;;;;12.55;55.05;97038.28;29990;247;6012;-61
2021/04/02 00:43:39;;;;;;;0.50;0.50;;;;;;;12.60;54.85;97040.09;29989;221;6000;-62
2021/04/02 00:44:09;;;;;;;0.50;0.50;;;;;;;12.62;54.43;97033.22;29990;199;6011;-63
2021/04/02 00:44:40;;;;;;;0.50;0.50;;;;;;;12.65;54.65;97031.81;29990;257;6000;-61
2021/04/02 00:45:13;;;;;;;0.50;0.50;;;;;;;12.60;54.68;97035.44;29990;213;6005;-61
2021/04/02 00:45:44;;;;;;;1.15;1.15;;;;;;;12.51;54.67;97036.44;29990;258;6000;-61
2021/04/02 00:46:19;;;;;;;0.50;0.50;;;;;;;12.44;55.17;97036.06;29990;231;6005;-60
2021/04/02 00:46:49;;;;;;;0.70;0.70;;;;;;;12.39;55.56;97040.50;29990;257;6000;-60
2021/04/02 00:47:20;;;;;;;0.50;0.50;;;;;;;12.38;55.61;97038.06;29990;197;6004;-61
2021/04/02 00:47:53;;;;;;;0.50;0.50;;;;;;;12.33;55.45;97047.12;29990;205;6000;-61
2021/04/02 00:48:23;;;;;;;0.50;0.50;;;;;;;12.30;55.53;97044.19;29990;253;6004;-53
2021/04/02 00:48:54;;;;;;;0.50;0.50;;;;;;;12.26;55.63;97043.19;29989;285;6008;-61
2021/04/02 00:49:24;;;;;;;0.50;0.50;;;;;;;12.23;55.55;97038.34;29990;206;6004;-59
2021/04/02 00:49:55;;;;;;;0.50;0.50;;;;;;;12.18;55.62;97038.41;29990;199;6000;-60
2021/04/02 00:50:50;;;;;;;0.50;0.50;;;;;;;12.04;56.53;97033.78;29990;282;6004;-53
2021/04/02 00:51:28;;;;;;;0.50;0.50;;;;;;;11.97;56.70;97033.34;29990;216;6021;-60
2021/04/02 00:51:59;;;;;;;0.50;0.50;;;;;;;11.97;56.62;97038.78;29990;269;6014;-60
2021/04/02 00:52:30;;;;;;;0.50;0.50;;;;;;;11.93;57.25;97032.31;29990;262;6000;-60
2021/04/02 00:53:01;;;;;;;0.50;0.50;;;;;;;11.90;57.55;97046.50;29990;214;6013;-60
2021/04/02 00:53:36;;;;;;;0.50;0.50;;;;;;;11.79;58.42;97050.50;29990;246;6009;-61
2021/04/02 00:54:07;;;;;;;0.50;0.50;;;;;;;11.74;58.31;97045.94;29989;202;6011;-61
2021/04/02 00:54:38;;;;;;;0.50;0.50;;;;;;;11.72;58.08;97040.00;29990;232;6000;-60
2021/04/02 00:55:10;;;;;;;0.60;0.60;;;;;;;11.72;57.99;97047.34;29990;218;6004;-60
2021/04/02 00:55:41;;;;;;;0.60;0.60;;;;;;;11.69;57.78;97050.66;29990;228;6000;-61
2021/04/02 00:56:14;;;;;;;0.50;0.50;;;;;;;11.68;57.57;97046.31;29990;244;6004;-60
2021/04/02 00:56:45;;;;;;;0.50;0.50;;;;;;;11.69;57.72;97045.22;29990;209;6000;-60
2021/04/02 00:57:16;;;;;;;0.50;0.50;;;;;;;11.67;57.67;97047.41;29990;203;6004;-60
2021/04/02 00:57:46;;;;;;;0.50;0.50;;;;;;;11.67;57.63;97050.13;29990;218;6000;-61
2021/04/02 00:58:25;;;;;;;0.50;0.50;;;;;;;11.66;58.44;97045.81;29989;253;6004;-60
2021/04/02 00:58:57;;;;;;;0.50;0.50;;;;;;;11.63;58.35;97043.66;29990;258;6000;-61
2021/04/02 00:59:28;;;;;;;0.50;0.50;;;;;;;11.61;58.44;97043.97;29989;220;6005;-60
2021/04/02 00:59:59;;;;;;;0.50;0.50;;;;;;;11.61;58.47;97040.44;29990;223;6000;-60
2021/04/02 01:00:31;;;;;;;0.50;0.50;;;;;;;11.58;58.88;97041.03;29990;301;6005;-60
2021/04/02 01:01:04;;;;;;;0.50;0.50;;;;;;;11.57;58.86;97045.66;29990;246;6000;-60
2021/04/02 01:01:34;;;;;;;0.50;0.50;;;;;;;11.55;58.49;97045.13;29990;257;6008;-61
2021/04/02 01:02:09;;;;;;;2.28;2.12;;;;;;;11.54;58.45;97040.81;29990;231;6000;-60
2021/04/02 01:02:40;;;;;;;0.50;0.50;;;;;;;11.55;58.34;97038.91;29990;236;6004;-61
2021/04/02 01:03:12;;;;;;;0.50;0.50;;;;;;;11.55;58.33;97044.34;29990;307;6000;-61
2021/04/02 01:03:44;;;;;;;0.82;0.82;;;;;;;11.70;58.22;97038.66;29990;221;6004;-60
2021/04/02 01:04:14;;;;;;;0.50;0.50;;;;;;;11.74;57.95;97026.09;29990;298;6000;-60
2021/04/02 01:04:45;;;;;;;0.50;0.50;;;;;;;11.81;57.53;97037.41;29989;232;6004;-61
2021/04/02 01:05:21;;;;;;;0.50;0.50;;;;;;;11.80;57.63;97032.28;29990;198;6000;-60
2021/04/02 01:05:55;;;;;;;0.50;0.50;;;;;;;11.79;57.82;97046.97;29990;202;6004;-60
2021/04/02 01:06:28;;;;;;;0.50;0.50;;;;;;;11.77;57.68;97044.56;29990;203;6000;-59
2021/04/02 01:06:59;;;;;;;0.50;0.50;;;;;;;11.77;57.59;97044.56;29990;298;6005;-59
2021/04/02 01:07:30;;;;;;;0.50;0.50;;;;;;;11.79;57.79;97046.97;29990;206;6000;-60
2021/04/02 01:08:05;;;;;;;0.50;0.50;;;;;;;11.84;57.66;97047.69;29990;250;6005;-60
2021/04/02 01:08:37;;;;;;;0.50;0.50;;;;;;;11.86;57.38;97037.34;29990;203;6000;-60
2021/04/02 01:09:09;;;;;;;0.50;0.50;;;;;;;11.95;57.12;97041.00;29990;218;6004;-61
2021/04/02 01:09:39;;;;;;;0.88;0.88;;;;;;;12.02;57.10;97041.41;29990;209;6000;-59
2021/04/02 01:10:14;;;;;;;0.50;0.50;;;;;;;12.06;56.71;97042.44;29989;197;6004;-60
2021/04/02 01:10:45;;;;;;;1.12;1.12;;;;;;;12.07;56.76;97041.34;29989;209;6000;-60
2021/04/02 01:11:19;;;;;;;0.50;0.50;;;;;;;12.11;56.61;97040.75;29990;266;6004;-60
2021/04/02 01:11:51;;;;;;;2.83;2.62;;;;;;;12.14;56.45;97037.41;29990;220;6000;-60
2021/04/02 01:12:22;;;;;;;0.50;0.50;;;;;;;12.13;56.58;97041.25;29990;212;6004;-60
2021/04/02 01:13:03;;;;;;;0.80;0.80;;;;;;;12.11;56.51;97043.47;29990;212;6000;-61
2021/04/02 01:13:40;;;;;;;0.50;0.50;;;;;;;12.07;56.44;97044.06;29990;268;6004;-60
2021/04/02 01:14:11;;;;;;;0.80;0.80;;;;;;;12.18;56.42;97038.41;29990;219;6009;-65
2021/04/02 01:14:42;;;;;;;0.50;0.50;;;;;;;12.30;55.77;97041.47;29990;204;6005;-60
2021/04/02 01:15:55;;;;;;;0.50;0.50;;;;;;;12.22;55.90;97039.44;29989;213;6000;-60
2021/04/02 01:16:35;;;;;;;0.50;0.50;;;;;;;11.98;57.67;97047.75;29990;215;6005;-60
2021/04/02 01:17:06;;;;;;;0.50;0.50;;;;;;;11.86;57.45;97036.53;29990;264;6009;-61
2021/04/02 01:17:42;;;;;;;0.57;0.57;;;;;;;11.81;57.54;97033.88;29990;196;6004;-59
2021/04/02 01:18:32;;;;;;;0.50;0.50;;;;;;;11.75;57.37;97031.25;29990;207;6000;-60
2021/04/02 01:19:23;;;;;;;0.50;0.50;;;;;;;11.78;57.30;97038.03;29990;202;6004;-62
2021/04/02 01:19:57;;;;;;;0.50;0.50;;;;;;;11.80;57.44;97037.72;29990;256;6000;-60
2021/04/02 01:20:32;;;;;;;0.50;0.50;;;;;;;11.78;57.14;97048.91;29988;281;6004;-60
2021/04/02 01:21:13;;;;;;;0.50;0.50;;;;;;;11.75;57.35;97035.87;29990;204;6000;-61
2021/04/02 01:21:53;;;;;;;0.50;0.50;;;;;;;11.67;57.96;97048.22;29990;202;6005;-60
2021/04/02 01:22:29;;;;;;;0.50;0.50;;;;;;;11.64;57.84;97045.28;29990;381;6000;-60
2021/04/02 01:23:06;;;;;;;0.50;0.50;;;;;;;11.63;57.63;97046.38;29990;227;6010;-60
2021/04/02 01:23:54;;;;;;;0.50;0.50;;;;;;;11.61;57.85;97048.59;29990;235;6000;-60
2021/04/02 01:24:37;;;;;;;0.57;0.57;;;;;;;11.64;57.62;97045.28;29990;264;6004;-64
2021/04/02 01:25:45;;;;;;;0.50;0.50;;;;;;;11.74;57.30;97042.41;29989;230;6000;-60
2021/04/02 01:26:27;;;;;;;0.50;0.50;;;;;;;11.74;57.26;97045.13;29988;202;6004;-61
2021/04/02 01:27:34;;;;;;;0.50;0.50;;;;;;;11.84;56.78;97034.09;29990;306;6000;-61
2021/04/02 01:28:28;;;;;;;0.50;0.50;;;;;;;11.97;56.14;97035.25;29990;213;6000;-61
2021/04/02 01:29:24;;;;;;;0.50;0.50;;;;;;;11.84;56.36;97028.66;29990;229;6004;-61
2021/04/02 01:29:57;;;;;;;1.35;1.35;;;;;;;11.88;56.29;97035.13;29991;213;6000;-60
2021/04/02 01:30:28;;;;;;;0.50;0.50;;;;;;;11.83;56.61;97035.19;29990;210;6005;-60
2021/04/02 01:31:01;;;;;;;0.50;0.50;;;;;;;11.77;56.49;97028.25;29990;216;6000;-61
2021/04/02 01:31:33;;;;;;;0.50;0.50;;;;;;;11.73;56.66;97028.00;29990;211;6005;-63
2021/04/02 01:32:08;;;;;;;1.12;1.12;;;;;;;11.72;56.95;97041.91;29991;210;6000;-60
2021/04/02 01:32:45;;;;;;;0.50;0.50;;;;;;;11.65;57.06;97041.47;29989;258;6004;-61
2021/04/02 01:33:17;;;;;;;0.50;0.50;;;;;;;11.62;57.24;97036.63;29991;235;6000;-61
2021/04/02 01:33:50;;;;;;;0.50;0.50;;;;;;;11.59;57.25;97042.63;29991;261;6004;-60
2021/04/02 01:34:24;;;;;;;0.50;0.50;;;;;;;11.65;57.25;97041.47;29991;235;6010;-60
2021/04/02 01:35:21;;;;;;;0.50;0.50;;;;;;;11.64;56.75;97039.84;29991;234;6000;-59
2021/04/02 01:35:54;;;;;;;0.50;0.50;;;;;;;11.60;56.88;97044.25;29991;227;6000;-60
2021/04/02 01:36:26;;;;;;;0.50;0.50;;;;;;;11.59;57.16;97042.63;29990;202;6004;-60
2021/04/02 01:37:03;;;;;;;0.60;0.60;;;;;;;11.64;57.05;97048.00;29991;202;6000;-62
2021/04/02 01:37:38;;;;;;;0.50;0.50;;;;;;;11.62;57.78;97047.50;29991;216;6005;-61
2021/04/02 01:38:33;;;;;;;0.50;0.50;;;;;;;11.44;57.88;97043.66;29990;322;6000;-61
2021/04/02 01:39:07;;;;;;;1.52;1.52;;;;;;;11.39;57.44;97043.78;29991;241;6005;-60
2021/04/02 01:39:42;;;;;;;0.50;0.50;;;;;;;11.34;57.53;97044.66;29991;207;6000;-60
2021/04/02 01:40:14;;;;;;;0.50;0.50;;;;;;;11.30;58.04;97046.34;29991;302;6004;-60
2021/04/02 01:40:49;;;;;;;0.50;0.50;;;;;;;11.23;58.30;97048.59;29990;232;6000;-60
2021/04/02 01:41:22;;;;;;;0.50;0.50;;;;;;;11.19;58.25;97042.13;29990;204;6004;-60
2021/04/02 01:41:58;;;;;;;0.50;0.50;;;;;;;11.35;57.70;97043.53;29991;197;6000;-61
2021/04/02 01:42:31;;;;;;;0.50;0.50;;;;;;;11.37;57.88;97041.34;29991;208;6006;-60
2021/04/02 01:43:09;;;;;;;0.50;0.50;;;;;;;11.42;57.72;97048.63;29990;253;6000;-61
2021/04/02 01:43:49;;;;;;;0.50;0.50;;;;;;;11.45;57.42;97039.84;29991;197;6004;-60
2021/04/02 01:44:21;;;;;;;0.50;0.50;;;;;;;11.42;57.54;97045.91;29990;197;6000;-61
2021/04/02 01:44:54;;;;;;;0.50;0.50;;;;;;;11.37;57.68;97046.78;29991;212;6005;-61
2021/04/02 01:45:26;;;;;;;0.50;0.50;;;;;;;11.35;58.28;97042.72;29991;221;6000;-60
2021/04/02 01:45:58;;;;;;;0.60;0.60;;;;;;;11.31;57.61;97034.38;29991;204;6005;-61
2021/04/02 01:46:29;;;;;;;0.50;0.50;;;;;;;11.30;57.93;97040.09;29991;224;6000;-60
2021/04/02 01:47:02;;;;;;;0.50;0.50;;;;;;;11.30;58.18;97040.91;29990;230;6004;-61
2021/04/02 01:47:33;;;;;;;0.50;0.50;;;;;;;11.34;57.88;97047.38;29990;260;6000;-60
2021/04/02 01:48:06;;;;;;;0.50;0.50;;;;;;;11.36;57.60;97042.44;29990;230;6004;-62
2021/04/02 01:48:42;;;;;;;0.50;0.50;;;;;;;11.44;57.42;97046.38;29991;224;6000;-60
2021/04/02 01:49:14;;;;;;;0.50;0.50;;;;;;;11.43;57.50;97044.00;29991;202;6004;-61
2021/04/02 01:49:45;;;;;;;0.50;0.50;;;;;;;11.39;57.69;97039.16;29991;384;6000;-60
2021/04/02 01:50:19;;;;;;;0.50;0.50;;;;;;;11.31;58.46;97052.56;29991;213;6004;-60
2021/04/02 01:50:51;;;;;;;0.50;0.50;;;;;;;11.24;58.05;97047.50;29991;307;6000;-61
2021/04/02 01:51:23;;;;;;;0.50;0.50;;;;;;;11.24;58.09;97044.78;29990;199;6005;-59
2021/04/02 01:51:54;;;;;;;0.50;0.50;;;;;;;11.23;58.13;97050.50;29991;270;6000;-60
2021/04/02 01:52:27;;;;;;;0.50;0.50;;;;;;;11.19;58.80;97044.84;29991;224;6005;-60
2021/04/02 01:52:58;;;;;;;0.50;0.50;;;;;;;11.14;58.85;97049.53;29990;206;6000;-60
2021/04/02 01:53:34;;;;;;;0.50;0.50;;;;;;;11.09;58.86;97062.06;29991;265;6005;-60
2021/04/02 01:54:06;;;;;;;0.60;0.60;;;;;;;11.07;58.58;97052.63;29991;192;6000;-60
2021/04/02 01:54:37;;;;;;;0.50;0.50;;;;;;;11.05;58.89;97054.84;29991;208;6004;-61
2021/04/02 01:55:11;;;;;;;0.50;0.50;;;;;;;11.03;58.59;97055.12;29991;200;6000;-61
2021/04/02 01:55:42;;;;;;;0.50;0.50;;;;;;;11.03;58.84;97052.41;29991;243;6004;-60
2021/04/02 01:56:14;;;;;;;0.50;0.50;;;;;;;11.03;58.92;97057.84;29990;221;6000;-60
2021/04/02 01:56:47;;;;;;;0.60;0.60;;;;;;;11.02;58.92;97053.50;29991;218;6004;-60
2021/04/02 01:57:19;;;;;;;0.50;0.50;;;;;;;11.01;59.05;97059.22;29991;211;6000;-61
2021/04/02 01:57:50;;;;;;;0.50;0.50;;;;;;;10.95;58.97;97049.53;29991;205;6004;-60
2021/04/02 01:58:22;;;;;;;0.50;0.50;;;;;;;11.00;59.41;97052.19;29991;236;6000;-60
2021/04/02 01:58:55;;;;;;;0.50;0.50;;;;;;;11.01;59.07;97053.81;29991;205;6000;-60
2021/04/02 01:59:27;;;;;;;0.50;0.50;;;;;;;11.11;58.81;97045.50;29991;232;6000;-61
2021/04/02 02:00:00;;;;;;;0.50;0.50;;;;;;;11.21;58.16;97050.00;29991;208;6005;-61
2021/04/02 02:00:43;;;;;;;0.50;0.50;;;;;;;11.18;58.81;97054.09;29991;202;6000;-61
2021/04/02 02:01:17;;;;;;;0.50;0.50;;;;;;;11.09;58.69;97055.84;29990;252;6004;-60
2021/04/02 02:01:49;;;;;;;0.50;0.50;;;;;;;11.04;58.57;97053.22;29991;241;6000;-61
2021/04/02 02:02:21;;;;;;;0.50;0.50;;;;;;;11.04;58.64;97053.22;29991;212;6004;-60
2021/04/02 02:02:55;;;;;;;0.50;0.50;;;;;;;11.01;59.29;97051.87;29991;269;6000;-60
2021/04/02 02:03:30;;;;;;;0.50;0.50;;;;;;;10.97;59.03;97052.75;29991;238;6007;-61
2021/04/02 02:04:02;;;;;;;0.50;0.50;;;;;;;10.90;59.36;97055.00;29991;210;6008;-60
2021/04/02 02:04:34;;;;;;;0.50;0.50;;;;;;;10.87;59.22;97052.88;29989;206;6004;-60
2021/04/02 02:05:07;;;;;;;0.50;0.50;;;;;;;10.83;59.91;97057.28;29991;196;6000;-61
2021/04/02 02:05:38;;;;;;;0.50;0.50;;;;;;;10.79;59.72;97050.81;29991;256;6004;-61
2021/04/02 02:06:11;;;;;;;0.50;0.50;;;;;;;10.78;59.75;97054.62;29991;323;6000;-60
2021/04/02 02:06:42;;;;;;;0.50;0.50;;;;;;;10.80;60.09;97055.94;29991;221;6005;-60
2021/04/02 02:07:14;;;;;;;0.50;0.50;;;;;;;10.78;60.05;97055.41;29991;207;6000;-61
2021/04/02 02:07:46;;;;;;;0.50;0.50;;;;;;;10.75;60.06;97062.22;29990;234;6005;-60
2021/04/02 02:08:18;;;;;;;0.50;0.50;;;;;;;10.71;60.47;97060.41;29991;221;6000;-61
2021/04/02 02:08:55;;;;;;;0.50;0.50;;;;;;;10.82;59.72;97055.66;29991;212;6004;-60
2021/04/02 02:09:33;;;;;;;0.50;0.50;;;;;;;10.83;59.66;97058.06;29991;221;6012;-61
2021/04/02 02:10:05;;;;;;;0.50;0.50;;;;;;;10.82;59.67;97058.37;29991;199;6004;-61
2021/04/02 02:10:36;;;;;;;0.50;0.50;;;;;;;10.84;59.66;97054.25;29991;212;6000;-56
2021/04/02 02:11:12;;;;;;;0.50;0.50;;;;;;;10.97;58.83;97053.56;29991;215;6004;-60
2021/04/02 02:11:46;;;;;;;0.50;0.50;;;;;;;11.11;58.19;97050.94;29990;262;6000;-61
2021/04/02 02:12:17;;;;;;;1.33;1.23;;;;;;;11.12;58.43;97049.81;29990;201;6004;-63
2021/04/02 02:12:49;;;;;;;0.60;0.60;;;;;;;11.14;58.18;97052.25;29991;256;6000;-54
2021/04/02 02:13:22;;;;;;;0.50;0.50;;;;;;;11.12;58.20;97049.03;29991;255;6004;-61
2021/04/02 02:14:00;;;;;;;0.50;0.50;;;;;;;11.06;58.36;97051.03;29992;295;6000;-52
2021/04/02 02:14:33;;;;;;;0.50;0.50;;;;;;;10.97;58.64;97053.56;29992;209;6005;-61
2021/04/02 02:15:15;;;;;;;0.50;0.50;;;;;;;11.08;58.24;97043.41;29991;207;6000;-61
2021/04/02 02:15:47;;;;;;;0.50;0.50;;;;;;;11.10;58.18;97054.75;29991;225;6005;-59
2021/04/02 02:16:19;;;;;;;0.50;0.50;;;;;;;11.02;58.11;97055.41;29991;216;6000;-60
2021/04/02 02:16:53;;;;;;;0.60;0.60;;;;;;;10.98;58.57;97054.38;29992;204;6004;-59
2021/04/02 02:17:25;;;;;;;0.50;0.50;;;;;;;10.98;58.48;97054.38;29991;251;6000;-60
2021/04/02 02:18:01;;;;;;;0.50;0.50;;;;;;;10.95;58.55;97052.25;29991;262;6004;-61
2021/04/02 02:18:35;;;;;;;0.57;0.57;;;;;;;11.09;58.00;97055.84;29992;244;6000;-61
2021/04/02 02:19:11;;;;;;;0.50;0.50;;;;;;;11.12;57.86;97057.97;29992;199;6004;-61
2021/04/02 02:19:43;;;;;;;0.50;0.50;;;;;;;11.14;57.94;97060.41;29992;245;6000;-60
2021/04/02 02:20:16;;;;;;;0.50;0.50;;;;;;;11.13;57.91;97062.31;29992;212;6004;-61
2021/04/02 02:20:47;;;;;;;0.60;0.60;;;;;;;11.12;57.80;97047.09;29992;203;6000;-62
2021/04/02 02:21:19;;;;;;;0.50;0.50;;;;;;;11.14;57.82;97060.41;29992;224;6005;-60
2021/04/02 02:21:52;;;;;;;0.50;0.50;;;;;;;11.05;58.42;97054.84;29992;215;6000;-60
2021/04/02 02:22:24;;;;;;;0.50;0.50;;;;;;;10.95;58.24;97058.47;29992;207;6005;-60
2021/04/02 02:22:57;;;;;;;0.50;0.50;;;;;;;10.89;58.46;97047.97;29991;231;5992;-60
2021/04/02 02:23:27;;;;;;;0.50;0.50;;;;;;;10.86;58.77;97062.12;29992;225;6005;-60
2021/04/02 02:23:58;;;;;;;0.50;0.50;;;;;;;10.82;59.06;97059.19;29992;278;6000;-63
2021/04/02 02:24:30;;;;;;;0.50;0.50;;;;;;;10.85;58.78;97055.06;29992;236;6004;-60
2021/04/02 02:25:04;;;;;;;0.50;0.50;;;;;;;10.87;58.88;97052.88;29992;208;6000;-61
2021/04/02 02:25:35;;;;;;;0.50;0.50;;;;;;;10.85;58.57;97049.66;29992;223;6004;-60
2021/04/02 02:26:08;;;;;;;0.50;0.50;;;;;;;10.82;58.90;97056.47;29991;204;6000;-61
2021/04/02 02:26:40;;;;;;;0.50;0.50;;;;;;;10.73;59.15;97053.59;29992;324;6004;-60
2021/04/02 02:27:11;;;;;;;0.50;0.50;;;;;;;10.63;59.57;97058.34;29991;234;6000;-60
2021/04/02 02:27:42;;;;;;;0.50;0.50;;;;;;;10.54;59.89;97055.44;29991;196;6004;-60
2021/04/02 02:28:14;;;;;;;0.50;0.50;;;;;;;10.50;59.81;97062.53;29992;299;6000;-61
2021/04/02 02:28:45;;;;;;;0.50;0.50;;;;;;;10.47;59.82;97052.25;29991;213;6004;-60
2021/04/02 02:29:16;;;;;;;1.02;1.02;;;;;;;10.46;60.21;97058.78;29992;241;6000;-59
2021/04/02 02:29:48;;;;;;;0.50;0.50;;;;;;;10.43;60.16;97061.25;29991;261;6005;-60
2021/04/02 02:30:23;;;;;;;0.50;0.50;;;;;;;10.40;60.36;97065.34;29992;255;6000;-60
2021/04/02 02:30:54;;;;;;;0.50;0.50;;;;;;;10.37;60.19;97058.63;29992;240;6005;-60
2021/04/02 02:31:24;;;;;;;0.50;0.50;;;;;;;10.34;60.43;97056.47;29991;240;6000;-60
2021/04/02 02:31:56;;;;;;;0.60;0.60;;;;;;;10.33;60.75;97056.75;29992;216;6004;-60
2021/04/02 02:32:27;;;;;;;0.50;0.50;;;;;;;10.32;60.74;97055.16;29991;211;6000;-60
2021/04/02 02:32:59;;;;;;;0.50;0.50;;;;;;;10.35;60.75;97057.28;29992;210;6004;-62
2021/04/02 02:33:30;;;;;;;0.50;0.50;;;;;;;10.43;59.97;97053.13;29992;308;6000;-60
2021/04/02 02:34:02;;;;;;;0.50;0.50;;;;;;;10.41;60.19;97056.12;29992;202;6004;-60
2021/04/02 02:34:33;;;;;;;0.50;0.50;;;;;;;10.38;59.86;97056.72;29991;223;6000;-60
2021/04/02 02:35:06;;;;;;;0.50;0.50;;;;;;;10.41;60.08;97053.41;29992;196;5992;-60
2021/04/02 02:35:37;;;;;;;0.50;0.50;;;;;;;10.34;60.68;97055.66;29992;227;6000;-60
2021/04/02 02:36:08;;;;;;;0.50;0.50;;;;;;;10.27;60.59;97052.47;29992;217;6004;-60
2021/04/02 02:36:39;;;;;;;0.50;0.50;;;;;;;10.24;60.41;97050.34;29991;204;6000;-60
2021/04/02 02:37:10;;;;;;;0.50;0.50;;;;;;;10.22;60.85;97057.94;29992;210;6005;-60
2021/04/02 02:37:43;;;;;;;0.50;0.50;;;;;;;10.17;60.61;97045.22;29992;333;6000;-60
2021/04/02 02:38:14;;;;;;;0.50;0.50;;;;;;;10.20;60.66;97055.53;29992;202;6005;-61
2021/04/02 02:38:45;;;;;;;0.50;0.50;;;;;;;10.18;60.75;97052.25;29992;265;6000;-60
2021/04/02 02:39:16;;;;;;;0.50;0.50;;;;;;;10.16;60.86;97053.63;29991;352;6004;-60
2021/04/02 02:39:47;;;;;;;0.50;0.50;;;;;;;10.13;60.91;97055.00;29992;212;6000;-60
2021/04/02 02:40:24;;;;;;;0.60;0.60;;;;;;;10.12;60.74;97052.59;29991;229;6004;-60
2021/04/02 02:40:55;;;;;;;0.57;0.57;;;;;;;10.11;60.83;97051.78;29991;198;6000;-61
2021/04/02 02:41:30;;;;;;;0.50;0.50;;;;;;;10.07;61.10;97054.25;29992;337;6004;-61
2021/04/02 02:42:05;;;;;;;0.50;0.50;;;;;;;10.05;61.13;97059.16;29991;233;6000;-61
2021/04/02 02:42:38;;;;;;;0.50;0.50;;;;;;;10.12;61.34;97055.28;29992;252;6004;-61
2021/04/02 02:43:08;;;;;;;0.50;0.50;;;;;;;10.22;61.04;97052.53;29992;242;6000;-61